Time;durP1;ratioP1;P1;durP2;ratioP2;P2;SDS_P1;SDS_P2;PMS_P1;PMS_P2;Temp;Humidity;BMP_temperature;BMP_pressure;BME280_temperature;BME280_humidity;BME280_pressure;Samples;Min_cycle;Max_cycle;Signal;HPM_P1;HPM_P2
2022/03/02 00:00:10;;;;;;;5.97;2.97;;;-3.30;99.90;;;;;;4876457;29;20769;-80
2022/03/02 00:02:38;;;;;;;7.03;2.80;;;-3.30;99.90;;;;;;4877772;29;20878;-81
2022/03/02 00:05:07;;;;;;;6.95;3.00;;;-3.30;99.90;;;;;;4892047;29;20415;-81
2022/03/02 00:07:35;;;;;;;7.18;2.88;;;-3.20;99.90;;;;;;4876609;29;20411;-81
2022/03/02 00:10:03;;;;;;;7.20;3.35;;;-3.20;99.90;;;;;;4892102;29;20402;-81
2022/03/02 00:12:31;;;;;;;8.57;3.37;;;-3.20;99.90;;;;;;4877530;29;20913;-81
2022/03/02 00:14:59;;;;;;;9.32;2.97;;;-3.40;99.90;;;;;;4877649;29;20401;-80
2022/03/02 00:17:27;;;;;;;9.80;3.80;;;-3.30;99.90;;;;;;4876257;29;20470;-81
2022/03/02 00:19:54;;;;;;;6.95;3.03;;;-3.30;99.90;;;;;;4894703;29;20427;-81
2022/03/02 00:22:22;;;;;;;6.90;3.38;;;-3.30;99.90;;;;;;4880319;29;20427;-81
2022/03/02 00:24:51;;;;;;;7.82;3.50;;;-3.30;99.90;;;;;;4895869;29;20900;-82
2022/03/02 00:27:20;;;;;;;6.85;3.60;;;-3.30;99.90;;;;;;4881195;29;20402;-83
2022/03/02 00:29:47;;;;;;;7.78;3.38;;;-3.40;99.90;;;;;;4895422;29;20414;-81
2022/03/02 00:32:15;;;;;;;6.80;3.25;;;-3.40;99.90;;;;;;4880963;29;20493;-81
2022/03/02 00:34:42;;;;;;;6.85;3.22;;;-3.30;99.90;;;;;;4879988;29;20403;-81
2022/03/02 00:37:10;;;;;;;7.70;3.60;;;-3.40;99.90;;;;;;4879755;29;20406;-81
2022/03/02 00:39:38;;;;;;;7.60;3.67;;;-3.50;99.90;;;;;;4895174;29;20399;-81
2022/03/02 00:42:06;;;;;;;6.47;3.50;;;-3.50;99.90;;;;;;4895114;29;20410;-83
2022/03/02 00:44:34;;;;;;;6.80;3.30;;;-3.50;99.90;;;;;;4879769;29;20403;-82
2022/03/02 00:47:03;;;;;;;7.68;3.80;;;-3.50;99.90;;;;;;4895161;29;20498;-80
2022/03/02 00:49:32;;;;;;;7.78;3.60;;;-3.60;99.90;;;;;;4895193;29;20518;-81
2022/03/02 00:52:01;;;;;;;7.45;3.60;;;-3.60;99.90;;;;;;4894901;29;20523;-82
2022/03/02 00:54:29;;;;;;;9.38;3.58;;;-3.60;99.90;;;;;;4895014;29;20767;-82
2022/03/02 00:56:57;;;;;;;7.60;3.60;;;-3.60;99.90;;;;;;4880528;29;20441;-81
2022/03/02 00:59:25;;;;;;;7.13;3.30;;;-3.60;99.90;;;;;;4895014;29;20397;-81
2022/03/02 01:01:52;;;;;;;8.17;3.80;;;-3.60;99.90;;;;;;4880542;29;20413;-81
2022/03/02 01:04:20;;;;;;;8.70;3.55;;;-3.70;99.90;;;;;;4879384;29;20466;-81
2022/03/02 01:06:47;;;;;;;8.00;3.70;;;-3.80;99.90;;;;;;4880420;29;20866;-83
2022/03/02 01:09:15;;;;;;;8.50;3.67;;;-3.70;99.90;;;;;;4880458;29;20418;-82
2022/03/02 01:11:43;;;;;;;9.10;3.90;;;-3.70;99.90;;;;;;4894892;29;20502;-81
2022/03/02 01:14:10;;;;;;;8.90;3.80;;;-3.70;99.90;;;;;;4894668;29;20407;-83
2022/03/02 01:16:38;;;;;;;9.38;4.45;;;-3.70;99.90;;;;;;4863800;29;20418;-82
2022/03/02 01:19:05;;;;;;;9.77;3.95;;;-3.70;99.90;;;;;;4879193;29;20395;-81
2022/03/02 01:21:33;;;;;;;8.05;4.07;;;-3.80;99.90;;;;;;4880314;29;20418;-81
2022/03/02 01:24:02;;;;;;;11.18;4.68;;;-3.80;99.90;;;;;;4880156;29;20913;-81
2022/03/02 01:26:30;;;;;;;9.93;4.37;;;-3.80;99.90;;;;;;4879960;29;20409;-81
2022/03/02 01:28:57;;;;;;;9.00;4.38;;;-3.80;99.90;;;;;;4879575;29;20403;-81
2022/03/02 01:31:26;;;;;;;8.63;4.18;;;-3.90;99.90;;;;;;4879903;29;20911;-80
2022/03/02 01:33:54;;;;;;;9.13;4.40;;;-3.90;99.90;;;;;;4880222;29;20395;-81
2022/03/02 01:36:23;;;;;;;8.43;4.05;;;-4.00;99.90;;;;;;4879872;29;20403;-80
2022/03/02 01:38:51;;;;;;;9.88;4.30;;;-3.90;99.90;;;;;;4894188;29;20416;-81
2022/03/02 01:41:23;;;;;;;8.53;3.97;;;-4.00;99.90;;;;;;4879752;29;20494;-81
2022/03/02 01:43:52;;;;;;;10.50;4.23;;;-4.00;99.90;;;;;;4879832;29;20415;-79
2022/03/02 01:46:21;;;;;;;11.48;4.22;;;-4.00;99.90;;;;;;4879686;29;20453;-79
2022/03/02 01:48:49;;;;;;;9.00;3.97;;;-4.00;99.90;;;;;;4879743;29;20425;-80
2022/03/02 01:51:17;;;;;;;10.23;4.38;;;-4.10;99.90;;;;;;4893794;29;20403;-81
2022/03/02 01:53:44;;;;;;;8.45;4.30;;;-4.10;99.90;;;;;;4879595;29;20890;-80
2022/03/02 01:56:13;;;;;;;9.20;4.22;;;-4.10;99.90;;;;;;4878328;29;20406;-81
2022/03/02 01:58:43;;;;;;;10.23;4.43;;;-4.20;99.90;;;;;;4879500;29;20486;-81
2022/03/02 02:01:11;;;;;;;8.55;3.90;;;-4.30;99.90;;;;;;4893698;29;20399;-80
2022/03/02 02:03:40;;;;;;;8.50;3.90;;;-4.40;99.90;;;;;;4878142;29;20395;-81
2022/03/02 02:06:08;;;;;;;8.43;4.10;;;-4.50;99.90;;;;;;4893742;29;20914;-81
2022/03/02 02:08:36;;;;;;;10.63;4.38;;;-4.40;99.90;;;;;;4893840;29;20819;-81
2022/03/02 02:11:04;;;;;;;8.93;4.43;;;-4.40;99.90;;;;;;4893681;29;20403;-81
2022/03/02 02:13:33;;;;;;;10.73;4.38;;;-4.30;99.90;;;;;;4893647;29;20410;-81
2022/03/02 02:16:04;;;;;;;9.02;4.25;;;-4.30;99.90;;;;;;4878142;29;20492;-81
2022/03/02 02:18:33;;;;;;;11.38;4.65;;;-4.30;99.90;;;;;;4878127;29;20399;-81
2022/03/02 02:21:07;;;;;;;10.63;4.47;;;-4.30;99.90;;;;;;4878673;29;20984;-81
2022/03/02 02:23:36;;;;;;;11.18;4.45;;;-4.30;99.90;;;;;;4878058;29;20399;-81
2022/03/02 02:26:05;;;;;;;10.73;4.85;;;-4.30;99.90;;;;;;4877987;29;20399;-81
2022/03/02 02:28:35;;;;;;;12.02;4.60;;;-4.30;99.90;;;;;;4893605;29;20391;-81
2022/03/02 02:31:03;;;;;;;10.23;4.43;;;-4.40;99.90;;;;;;4879072;29;20728;-81
2022/03/02 02:33:31;;;;;;;10.73;4.82;;;-4.40;99.90;;;;;;4878871;29;20483;-81
2022/03/02 02:35:59;;;;;;;11.07;4.60;;;-4.40;99.90;;;;;;4878963;29;20399;-81
2022/03/02 02:38:27;;;;;;;9.82;4.85;;;-4.40;99.90;;;;;;4893326;29;20455;-81
2022/03/02 02:40:54;;;;;;;10.63;4.50;;;-4.40;99.90;;;;;;4877617;29;20399;-81
2022/03/02 02:43:24;;;;;;;10.17;5.23;;;-4.40;99.90;;;;;;4893057;29;20449;-81
2022/03/02 02:45:53;;;;;;;10.98;4.80;;;-4.50;99.90;;;;;;4878804;29;20427;-81
2022/03/02 02:48:21;;;;;;;11.32;5.25;;;-4.50;99.90;;;;;;4878622;29;20399;-81
2022/03/02 02:50:49;;;;;;;10.48;5.05;;;-4.50;99.90;;;;;;4877550;29;20439;-81
2022/03/02 02:53:17;;;;;;;11.05;4.97;;;-4.50;99.90;;;;;;4878533;29;20472;-81
2022/03/02 02:55:46;;;;;;;10.90;5.32;;;-4.50;99.90;;;;;;4878558;29;20934;-81
2022/03/02 02:58:14;;;;;;;11.25;5.22;;;-4.50;99.90;;;;;;4878578;29;20402;-81
2022/03/02 03:00:44;;;;;;;11.27;5.35;;;-4.50;99.90;;;;;;4877171;29;20411;-81
2022/03/02 03:03:12;;;;;;;10.75;5.35;;;-4.60;99.90;;;;;;4892858;29;20407;-81
2022/03/02 03:05:40;;;;;;;9.70;4.95;;;-4.60;99.90;;;;;;4892504;29;20849;-81
2022/03/02 03:08:10;;;;;;;10.88;4.72;;;-4.60;99.90;;;;;;4878425;29;20885;-81
2022/03/02 03:10:39;;;;;;;9.82;5.10;;;-4.60;99.90;;;;;;4878257;29;20906;-81
2022/03/02 03:13:07;;;;;;;10.35;4.68;;;-4.60;99.90;;;;;;4892527;29;20447;-81
2022/03/02 03:15:35;;;;;;;10.23;4.75;;;-4.60;99.90;;;;;;4878550;29;20431;-81
2022/03/02 03:18:05;;;;;;;9.43;4.78;;;-4.60;99.90;;;;;;4892563;29;20414;-81
2022/03/02 03:20:34;;;;;;;11.23;4.78;;;-4.60;99.90;;;;;;4892498;29;20415;-81
2022/03/02 03:23:02;;;;;;;9.65;4.72;;;-4.60;99.90;;;;;;4892469;29;20419;-81
2022/03/02 03:25:30;;;;;;;9.75;4.57;;;-4.60;99.90;;;;;;4876889;29;20502;-81
2022/03/02 03:27:58;;;;;;;9.50;4.60;;;-4.60;99.90;;;;;;4878265;29;20398;-81
2022/03/02 03:30:26;;;;;;;10.10;4.85;;;-4.60;99.90;;;;;;4878111;29;20418;-81
2022/03/02 03:32:55;;;;;;;10.30;4.82;;;-4.60;99.90;;;;;;4878012;29;20425;-81
2022/03/02 03:35:24;;;;;;;10.23;4.68;;;-4.60;99.90;;;;;;4876739;29;20491;-81
2022/03/02 03:37:53;;;;;;;10.40;4.53;;;-4.60;99.90;;;;;;4877215;29;20395;-81
2022/03/02 03:40:21;;;;;;;9.32;4.75;;;-4.70;99.90;;;;;;4876815;29;20439;-82
2022/03/02 03:42:50;;;;;;;9.32;4.60;;;-4.70;99.90;;;;;;4861337;29;20426;-82
2022/03/02 03:45:18;;;;;;;12.70;5.30;;;-4.70;99.90;;;;;;4875759;29;20932;-81
2022/03/02 03:47:46;;;;;;;10.48;5.18;;;-4.70;99.90;;;;;;4876791;29;20638;-81
2022/03/02 03:50:14;;;;;;;10.73;4.80;;;-4.80;99.90;;;;;;4876446;29;20407;-81
2022/03/02 03:52:42;;;;;;;11.32;4.80;;;-4.80;99.90;;;;;;4891784;29;20422;-81
2022/03/02 03:55:12;;;;;;;10.40;5.10;;;-4.70;99.90;;;;;;4892173;29;20410;-81
2022/03/02 03:57:40;;;;;;;12.07;5.10;;;-4.80;99.90;;;;;;4891988;29;20880;-81
2022/03/02 04:00:12;;;;;;;11.65;5.18;;;-4.80;99.90;;;;;;4876350;29;20399;-82
2022/03/02 04:02:40;;;;;;;13.07;5.47;;;-4.80;99.90;;;;;;4877740;29;20406;-81
2022/03/02 04:05:09;;;;;;;9.73;4.78;;;-4.80;99.90;;;;;;4892017;29;20449;-81
2022/03/02 04:07:36;;;;;;;12.07;5.47;;;-4.80;99.90;;;;;;4877602;29;20414;-81
2022/03/02 04:10:08;;;;;;;10.40;4.97;;;-4.80;99.90;;;;;;4876772;29;20411;-82
2022/03/02 04:12:36;;;;;;;13.13;5.68;;;-4.80;99.90;;;;;;4876394;29;20430;-80
2022/03/02 04:15:04;;;;;;;10.05;4.90;;;-4.80;99.90;;;;;;4891880;29;20427;-81
2022/03/02 04:17:33;;;;;;;11.93;5.32;;;-4.80;99.90;;;;;;4872145;29;20415;-80
2022/03/02 04:20:00;;;;;;;12.15;5.28;;;-4.90;99.90;;;;;;4891636;29;20474;-81
2022/03/02 04:22:28;;;;;;;13.85;6.10;;;-4.90;99.90;;;;;;4891848;29;20427;-81
2022/03/02 04:24:56;;;;;;;13.48;5.18;;;-4.90;99.90;;;;;;4876624;29;20500;-81
2022/03/02 04:27:24;;;;;;;11.73;5.25;;;-4.90;99.90;;;;;;4876387;29;20441;-81
2022/03/02 04:29:51;;;;;;;12.27;5.40;;;-4.90;99.90;;;;;;4876704;29;20403;-81
2022/03/02 04:32:19;;;;;;;12.00;5.70;;;-4.80;99.90;;;;;;4877743;29;20426;-81
2022/03/02 04:34:46;;;;;;;12.20;5.53;;;-4.90;99.90;;;;;;4891788;29;20399;-81
2022/03/02 04:37:14;;;;;;;12.27;5.50;;;-4.90;99.90;;;;;;4891635;29;20399;-81
2022/03/02 04:39:42;;;;;;;13.07;5.75;;;-4.90;99.90;;;;;;4876302;29;20411;-81
2022/03/02 04:42:09;;;;;;;11.23;5.15;;;-4.90;99.90;;;;;;4891741;29;20430;-81
2022/03/02 04:44:37;;;;;;;13.95;5.85;;;-5.00;99.90;;;;;;4877334;29;20836;-81
2022/03/02 04:47:04;;;;;;;12.48;5.47;;;-5.00;99.90;;;;;;4876148;29;20419;-80
2022/03/02 04:49:32;;;;;;;11.70;5.40;;;-5.00;99.90;;;;;;4891402;29;20998;-81
2022/03/02 04:52:00;;;;;;;13.35;5.80;;;-5.00;99.90;;;;;;4876153;29;20485;-81
2022/03/02 04:57:13;;;;;;;11.10;5.00;;;-5.00;99.90;;;;;;4876138;29;20407;-82
2022/03/02 04:59:41;;;;;;;15.63;6.22;;;-4.90;99.90;;;;;;4876225;29;20430;-81
2022/03/02 05:02:08;;;;;;;11.90;5.45;;;-4.90;99.90;;;;;;4871959;29;20415;-81
2022/03/02 05:04:36;;;;;;;13.13;6.03;;;-4.90;99.90;;;;;;4861510;29;20486;-81
2022/03/02 05:07:04;;;;;;;12.60;5.55;;;-4.90;99.90;;;;;;4879405;29;20414;-81
2022/03/02 05:09:32;;;;;;;12.77;5.68;;;-4.90;99.90;;;;;;4879453;29;20482;-81
2022/03/02 05:12:02;;;;;;;8.75;4.45;;;-5.00;99.90;;;;;;4879144;29;20414;-81
2022/03/02 05:14:30;;;;;;;11.43;5.13;;;-4.90;99.90;;;;;;4879500;29;20486;-81
2022/03/02 05:16:58;;;;;;;13.85;5.57;;;-5.10;99.90;;;;;;4854981;29;20910;-82
2022/03/02 05:19:25;;;;;;;14.60;6.28;;;-5.00;99.90;;;;;;4886566;29;20787;-83
2022/03/02 05:21:53;;;;;;;12.93;5.70;;;-5.00;99.90;;;;;;4860779;29;20416;-81
2022/03/02 05:24:20;;;;;;;10.52;5.18;;;-5.10;99.90;;;;;;4861667;29;20432;-81
2022/03/02 05:26:48;;;;;;;13.55;5.97;;;-5.10;99.90;;;;;;4860664;29;20401;-81
2022/03/02 05:29:15;;;;;;;13.52;5.72;;;-5.10;99.90;;;;;;4860626;29;20416;-81
2022/03/02 05:31:43;;;;;;;12.70;5.70;;;-5.20;99.90;;;;;;4861721;29;20396;-81
2022/03/02 05:34:11;;;;;;;12.20;5.40;;;-5.20;99.90;;;;;;4861426;29;20420;-81
2022/03/02 05:36:38;;;;;;;12.30;5.38;;;-5.20;99.90;;;;;;4875658;29;20401;-81
2022/03/02 05:39:06;;;;;;;10.70;5.18;;;-5.20;99.90;;;;;;4875541;29;20428;-82
2022/03/02 05:41:33;;;;;;;12.15;5.07;;;-5.10;99.90;;;;;;4875594;29;20433;-81
2022/03/02 05:44:02;;;;;;;12.40;5.50;;;-5.20;99.90;;;;;;4876019;29;20403;-81
2022/03/02 05:46:29;;;;;;;13.77;5.80;;;-5.30;99.90;;;;;;4878556;29;20411;-81
2022/03/02 05:48:57;;;;;;;10.40;5.38;;;-5.20;99.90;;;;;;4878747;29;20414;-81
2022/03/02 05:51:25;;;;;;;11.13;5.40;;;-5.30;99.90;;;;;;4878634;29;20402;-82
2022/03/02 05:53:53;;;;;;;12.27;5.70;;;-5.30;99.90;;;;;;4863422;29;20430;-81
2022/03/02 05:56:20;;;;;;;10.73;5.73;;;-5.30;99.90;;;;;;4894044;29;20414;-81
2022/03/02 05:58:48;;;;;;;11.50;5.40;;;-5.30;99.90;;;;;;4878419;29;20403;-81
2022/03/02 06:01:15;;;;;;;13.27;5.83;;;-5.30;99.90;;;;;;4865440;29;20422;-81
2022/03/02 06:03:44;;;;;;;11.82;5.47;;;-5.20;99.90;;;;;;4876625;29;20407;-81
2022/03/02 06:06:33;;;;;;;11.57;5.47;;;-5.30;99.90;;;;;;4879671;29;20743;-81
2022/03/02 06:09:05;;;;;;;11.48;4.90;;;-5.30;99.90;;;;;;4893626;29;20431;-80
2022/03/02 06:11:33;;;;;;;14.32;5.90;;;-5.30;99.90;;;;;;4893389;29;20419;-80
2022/03/02 06:14:01;;;;;;;12.47;5.77;;;-5.40;99.90;;;;;;4888894;29;20415;-81
2022/03/02 06:16:29;;;;;;;11.77;5.40;;;-5.50;99.90;;;;;;4878103;29;20932;-81
2022/03/02 06:18:58;;;;;;;13.93;5.43;;;-5.40;99.90;;;;;;4879394;29;20402;-81
2022/03/02 06:21:30;;;;;;;11.25;5.35;;;-5.30;99.90;;;;;;4879068;29;20814;-81
2022/03/02 06:23:59;;;;;;;12.75;5.32;;;-5.50;99.90;;;;;;4877993;29;20410;-80
2022/03/02 06:26:27;;;;;;;10.02;5.03;;;-5.60;99.90;;;;;;4862900;29;20405;-81
2022/03/02 06:28:55;;;;;;;9.80;5.20;;;-5.60;99.90;;;;;;4893362;29;20785;-80
2022/03/02 06:31:25;;;;;;;11.23;5.22;;;-5.60;99.90;;;;;;4862878;29;20415;-80
2022/03/02 06:33:53;;;;;;;12.20;5.37;;;-5.60;99.90;;;;;;4893540;29;20422;-80
2022/03/02 06:36:20;;;;;;;10.15;5.10;;;-5.50;99.90;;;;;;4878940;29;20395;-80
2022/03/02 06:38:48;;;;;;;12.57;5.20;;;-5.50;99.90;;;;;;4893440;29;20403;-80
2022/03/02 06:41:29;;;;;;;10.93;5.03;;;-5.50;99.90;;;;;;4893209;29;20399;-80
2022/03/02 06:44:02;;;;;;;11.73;5.45;;;-5.50;99.90;;;;;;4878913;29;20435;-81
2022/03/02 06:46:39;;;;;;;10.35;5.32;;;-5.50;99.90;;;;;;4878804;29;20442;-81
2022/03/02 06:49:52;;;;;;;10.68;5.00;;;-5.40;99.90;;;;;;4878804;29;20482;-81
2022/03/02 06:52:21;;;;;;;9.50;4.43;;;-5.40;99.90;;;;;;4871550;29;20438;-80
2022/03/02 06:54:50;;;;;;;9.15;4.70;;;-5.20;99.90;;;;;;4878608;29;20957;-80
2022/03/02 06:57:19;;;;;;;9.77;4.68;;;-5.20;99.90;;;;;;4878614;29;20953;-80
2022/03/02 06:59:53;;;;;;;9.52;4.10;;;-5.20;99.90;;;;;;4878562;29;20399;-81
2022/03/02 07:02:44;;;;;;;10.77;4.22;;;-4.80;99.90;;;;;;4877202;29;20399;-80
2022/03/02 07:05:13;;;;;;;8.85;3.88;;;-4.90;99.90;;;;;;4877075;29;20475;-81
2022/03/02 07:07:40;;;;;;;10.85;3.33;;;-4.80;99.90;;;;;;4878463;29;20414;-80
2022/03/02 07:10:10;;;;;;;8.68;3.78;;;-4.50;99.90;;;;;;4877499;29;20925;-82
2022/03/02 07:12:39;;;;;;;10.05;3.47;;;-4.10;99.90;;;;;;4876954;29;20954;-82
2022/03/02 07:15:08;;;;;;;7.55;3.47;;;-3.90;99.90;;;;;;4892769;29;20450;-82
2022/03/02 07:17:36;;;;;;;8.85;4.00;;;-3.80;99.90;;;;;;4876988;29;20404;-83
2022/03/02 07:20:06;;;;;;;10.18;4.85;;;-3.70;99.90;;;;;;4873021;29;20429;-82
2022/03/02 07:22:55;;;;;;;8.83;4.50;;;-3.30;99.90;;;;;;4878118;29;20909;-81
2022/03/02 07:25:35;;;;;;;10.40;5.35;;;-3.20;99.90;;;;;;4859617;29;20401;-80
2022/03/02 07:28:03;;;;;;;10.87;5.20;;;-3.20;99.90;;;;;;4858189;29;20460;-80
2022/03/02 07:30:31;;;;;;;11.40;5.32;;;-3.00;99.90;;;;;;4843003;29;20456;-83
2022/03/02 07:33:03;;;;;;;13.52;5.72;;;-3.00;99.90;;;;;;4858152;29;20420;-80
2022/03/02 07:35:34;;;;;;;13.30;6.13;;;-2.90;99.90;;;;;;4858266;29;20903;-80
2022/03/02 07:38:04;;;;;;;13.55;6.03;;;-2.80;99.90;;;;;;4845465;29;20415;-82
2022/03/02 07:40:33;;;;;;;12.48;6.50;;;-2.70;99.90;;;;;;4867717;29;20404;-80
2022/03/02 07:43:01;;;;;;;12.45;5.90;;;-2.60;99.90;;;;;;4869414;29;20475;-82
2022/03/02 07:45:28;;;;;;;12.88;5.80;;;-2.40;99.90;;;;;;4873655;29;20427;-81
2022/03/02 07:47:56;;;;;;;11.50;5.60;;;-2.40;99.90;;;;;;4877614;29;20454;-82
2022/03/02 07:50:25;;;;;;;10.57;5.30;;;-2.40;99.90;;;;;;4876646;29;20414;-79
2022/03/02 07:52:54;;;;;;;10.37;5.30;;;-2.50;99.90;;;;;;4891917;29;20850;-82
2022/03/02 07:55:23;;;;;;;13.18;5.63;;;-2.30;99.90;;;;;;4887120;29;20415;-81
2022/03/02 07:57:53;;;;;;;13.20;5.95;;;-2.10;99.90;;;;;;4877394;29;20402;-81
2022/03/02 08:00:21;;;;;;;13.68;6.30;;;-2.10;99.90;;;;;;4877903;29;20403;-81
2022/03/02 08:02:53;;;;;;;14.07;6.50;;;-2.10;99.90;;;;;;4877573;29;20395;-81
2022/03/02 08:05:22;;;;;;;12.70;6.10;;;-1.90;99.90;;;;;;4877884;29;20483;-81
2022/03/02 08:07:50;;;;;;;12.65;6.53;;;-1.90;99.90;;;;;;4877913;29;20482;-81
2022/03/02 08:10:18;;;;;;;12.30;6.70;;;-1.80;99.90;;;;;;4877637;29;20399;-81
2022/03/02 08:12:46;;;;;;;12.50;6.80;;;-1.90;99.90;;;;;;4866129;29;20401;-80
2022/03/02 08:15:14;;;;;;;13.05;6.20;;;-1.90;99.90;;;;;;4859063;29;20401;-80
2022/03/02 08:17:43;;;;;;;12.23;5.97;;;-1.70;99.90;;;;;;4859053;29;20408;-82
2022/03/02 08:20:11;;;;;;;12.70;6.85;;;-1.50;99.90;;;;;;4858868;29;20413;-82
2022/03/02 08:22:48;;;;;;;13.32;6.60;;;-1.50;99.90;;;;;;4857896;29;20403;-81
2022/03/02 08:25:21;;;;;;;13.85;6.40;;;-1.50;99.90;;;;;;4857814;29;20670;-80
2022/03/02 08:27:52;;;;;;;12.02;6.53;;;-1.30;99.90;;;;;;4859346;29;20408;-81
2022/03/02 08:30:20;;;;;;;14.57;6.63;;;-1.20;99.90;;;;;;4857686;29;20405;-82
2022/03/02 08:32:48;;;;;;;14.47;6.93;;;-1.20;99.90;;;;;;4859116;29;20460;-81
2022/03/02 08:35:16;;;;;;;11.10;6.38;;;-1.10;99.90;;;;;;4876300;29;20907;-81
2022/03/02 08:37:44;;;;;;;11.25;5.63;;;-1.20;99.90;;;;;;4876355;29;20395;-81
2022/03/02 08:40:13;;;;;;;10.68;5.78;;;-1.20;99.90;;;;;;4893563;29;20839;-82
2022/03/02 08:42:41;;;;;;;9.43;5.13;;;-1.20;99.90;;;;;;4880984;29;20780;-82
2022/03/02 08:45:10;;;;;;;10.63;5.22;;;-1.20;99.90;;;;;;4879968;29;20413;-81
2022/03/02 08:47:38;;;;;;;11.20;5.00;;;-1.00;99.90;;;;;;4880966;29;20410;-82
2022/03/02 08:50:07;;;;;;;11.53;5.03;;;-1.10;99.90;;;;;;4880816;29;20402;-82
2022/03/02 08:52:35;;;;;;;11.25;4.30;;;-1.00;99.90;;;;;;4880797;29;20462;-81
2022/03/02 08:55:10;;;;;;;8.00;4.50;;;-1.00;99.90;;;;;;4879251;29;20966;-82
2022/03/02 08:57:43;;;;;;;10.50;4.55;;;-0.80;99.90;;;;;;4879554;29;20492;-82
2022/03/02 09:00:13;;;;;;;8.25;4.57;;;-0.80;99.90;;;;;;4894899;29;20463;-82
2022/03/02 09:02:41;;;;;;;9.63;4.53;;;-0.90;99.90;;;;;;4879472;29;20399;-82
2022/03/02 09:05:09;;;;;;;10.90;4.83;;;-0.70;99.90;;;;;;4894815;29;20411;-82
2022/03/02 09:07:37;;;;;;;10.48;4.95;;;-0.40;99.90;;;;;;4879797;29;20467;-81
2022/03/02 09:10:06;;;;;;;10.57;4.73;;;-0.40;99.90;;;;;;4880181;29;20409;-81
2022/03/02 09:12:33;;;;;;;9.05;4.75;;;-0.50;99.90;;;;;;4872768;29;20440;-82
2022/03/02 09:15:02;;;;;;;9.50;4.60;;;-0.40;99.90;;;;;;4867440;29;20423;-81
2022/03/02 09:17:30;;;;;;;10.35;4.88;;;-0.30;99.90;;;;;;4879118;29;20905;-81
2022/03/02 09:19:58;;;;;;;6.90;3.80;;;-0.20;99.90;;;;;;4890088;29;20423;-82
2022/03/02 09:22:27;;;;;;;7.50;3.83;;;0.00;99.90;;;;;;4880132;29;20866;-81
2022/03/02 09:24:56;;;;;;;8.93;4.20;;;0.10;99.90;;;;;;4880169;29;20410;-82
2022/03/02 09:27:27;;;;;;;8.55;4.65;;;0.10;99.90;;;;;;4877917;29;20403;-82
2022/03/02 09:29:58;;;;;;;9.37;4.60;;;-0.10;99.90;;;;;;4861481;29;20437;-81
2022/03/02 09:32:26;;;;;;;8.40;4.32;;;-0.10;99.90;;;;;;4875656;29;20461;-81
2022/03/02 09:34:55;;;;;;;9.52;4.22;;;0.10;99.90;;;;;;4861462;29;20499;-80
2022/03/02 09:37:24;;;;;;;7.72;3.80;;;0.30;99.90;;;;;;4861269;29;20396;-81
2022/03/02 09:39:54;;;;;;;7.18;3.88;;;0.30;99.90;;;;;;4861262;29;20424;-81
2022/03/02 09:42:30;;;;;;;9.43;3.75;;;0.20;99.90;;;;;;4875169;29;20426;-83
2022/03/02 09:45:07;;;;;;;7.38;4.05;;;0.20;99.90;;;;;;4888023;29;20918;-82
2022/03/02 09:47:53;;;;;;;7.80;4.10;;;0.10;99.90;;;;;;4859861;29;20939;-82
2022/03/02 09:50:22;;;;;;;9.05;3.83;;;0.30;99.90;;;;;;4860677;29;20401;-82
2022/03/02 09:52:54;;;;;;;9.45;4.18;;;0.30;99.90;;;;;;4859951;29;20408;-83
2022/03/02 09:55:23;;;;;;;8.83;4.33;;;0.40;99.90;;;;;;4859762;29;20507;-83
2022/03/02 09:57:54;;;;;;;10.35;4.38;;;0.50;99.90;;;;;;4859712;29;20453;-83
2022/03/02 10:00:23;;;;;;;10.35;4.40;;;0.50;99.90;;;;;;4859786;29;20409;-83
2022/03/02 10:02:55;;;;;;;10.40;4.80;;;0.70;99.90;;;;;;4859590;29;20887;-83
2022/03/02 10:05:26;;;;;;;9.27;4.70;;;0.80;99.90;;;;;;4859661;29;20837;-83
2022/03/02 10:07:57;;;;;;;11.00;5.10;;;0.70;99.90;;;;;;4859555;29;20911;-83
2022/03/02 10:10:28;;;;;;;7.88;4.50;;;0.70;99.90;;;;;;4860757;29;20405;-83
2022/03/02 10:13:01;;;;;;;9.43;4.90;;;0.70;99.90;;;;;;4860818;29;20412;-83
2022/03/02 10:15:30;;;;;;;11.43;5.15;;;0.80;99.90;;;;;;4868191;29;20415;-84
2022/03/02 10:18:07;;;;;;;11.57;5.55;;;0.90;99.90;;;;;;4874125;29;20473;-83
2022/03/02 10:20:42;;;;;;;11.63;6.03;;;1.00;99.90;;;;;;4858088;29;20805;-84
2022/03/02 10:23:21;;;;;;;12.05;5.85;;;1.00;99.90;;;;;;4874753;29;20408;-83
2022/03/02 10:25:59;;;;;;;13.95;6.50;;;1.10;99.90;;;;;;4876747;29;20403;-83
2022/03/02 10:28:33;;;;;;;12.33;6.43;;;1.10;99.90;;;;;;4879114;29;20399;-83
2022/03/02 10:31:27;;;;;;;11.50;6.30;;;1.10;99.90;;;;;;4879065;29;20403;-83
2022/03/02 10:34:16;;;;;;;11.85;6.05;;;1.20;99.90;;;;;;4878923;29;20419;-83
2022/03/02 10:36:50;;;;;;;13.25;6.72;;;1.10;99.90;;;;;;4877874;29;20395;-84
2022/03/02 10:39:54;;;;;;;12.10;6.15;;;1.20;99.90;;;;;;4877844;29;20396;-84
2022/03/02 10:42:31;;;;;;;13.57;5.88;;;1.30;99.90;;;;;;4876505;29;20522;-83
2022/03/02 10:45:09;;;;;;;12.63;6.43;;;1.30;99.90;;;;;;4877671;29;20456;-84
2022/03/02 10:48:10;;;;;;;11.90;6.28;;;1.40;99.90;;;;;;4878887;29;20414;-84
2022/03/02 10:50:39;;;;;;;11.80;6.47;;;1.50;99.90;;;;;;4893267;29;20493;-84
2022/03/02 10:53:16;;;;;;;9.73;5.50;;;1.60;99.90;;;;;;4878308;29;20458;-84
2022/03/02 10:55:48;;;;;;;13.50;6.20;;;1.60;99.90;;;;;;4877303;29;20858;-83
2022/03/02 10:58:18;;;;;;;11.25;6.25;;;1.80;99.90;;;;;;4877297;29;20815;-84
2022/03/02 11:00:47;;;;;;;11.50;6.00;;;1.80;99.90;;;;;;4877433;29;20415;-84
2022/03/02 11:03:19;;;;;;;12.00;6.13;;;1.90;99.90;;;;;;4878014;29;20432;-84
2022/03/02 11:05:47;;;;;;;10.60;6.07;;;1.90;99.90;;;;;;4892774;29;20411;-84
2022/03/02 11:08:17;;;;;;;13.98;6.63;;;2.00;99.90;;;;;;4890995;29;20924;-85
2022/03/02 11:10:49;;;;;;;12.18;6.47;;;2.00;99.90;;;;;;4877329;29;20458;-83
2022/03/02 11:13:19;;;;;;;12.43;6.13;;;1.90;99.90;;;;;;4892899;29;20444;-84
2022/03/02 11:15:58;;;;;;;13.13;6.75;;;2.30;99.90;;;;;;4876963;29;20422;-84
2022/03/02 11:18:35;;;;;;;13.02;6.63;;;2.40;99.90;;;;;;4877184;29;20403;-84
2022/03/02 11:21:14;;;;;;;14.70;6.60;;;2.40;99.90;;;;;;4859363;29;20413;-84
2022/03/02 11:23:45;;;;;;;13.80;6.57;;;2.50;99.90;;;;;;4858526;29;20400;-85
2022/03/02 11:26:26;;;;;;;12.63;6.33;;;2.50;99.90;;;;;;4858440;29;20465;-85
2022/03/02 11:28:56;;;;;;;12.07;6.15;;;2.60;99.90;;;;;;4870524;29;20928;-85
2022/03/02 11:31:29;;;;;;;12.65;6.45;;;2.70;99.90;;;;;;4889149;29;20476;-85
2022/03/02 11:34:14;;;;;;;12.38;6.00;;;2.80;99.90;;;;;;4858459;29;20412;-85
2022/03/02 11:36:45;;;;;;;11.32;5.90;;;2.90;99.90;;;;;;4859567;29;20499;-85
2022/03/02 11:39:14;;;;;;;11.48;5.97;;;2.90;99.90;;;;;;4858446;29;20404;-85
2022/03/02 11:41:44;;;;;;;11.75;6.20;;;3.00;99.90;;;;;;4859508;29;20400;-84
2022/03/02 11:44:30;;;;;;;11.97;5.77;;;3.10;99.90;;;;;;4858404;29;20405;-85
2022/03/02 11:46:59;;;;;;;11.80;5.68;;;3.00;99.90;;;;;;4858241;29;20424;-84
2022/03/02 11:49:47;;;;;;;12.13;6.07;;;3.00;99.90;;;;;;4858158;29;20416;-85
2022/03/02 11:52:17;;;;;;;12.18;5.85;;;3.40;99.90;;;;;;4842795;29;20468;-84
2022/03/02 11:55:10;;;;;;;10.23;5.38;;;3.30;99.90;;;;;;4859775;29;20424;-85
2022/03/02 11:57:42;;;;;;;12.90;6.25;;;3.40;99.90;;;;;;4873940;29;20830;-85
2022/03/02 12:00:18;;;;;;;12.65;5.97;;;3.40;99.90;;;;;;4873692;29;20408;-85
2022/03/02 12:02:52;;;;;;;12.20;5.50;;;3.30;99.90;;;;;;4873507;29;20405;-85
2022/03/02 12:05:27;;;;;;;11.50;6.13;;;3.40;99.90;;;;;;4876267;29;20513;-85
2022/03/02 12:08:12;;;;;;;12.80;6.30;;;3.50;99.90;;;;;;4858410;29;20504;-85
2022/03/02 12:10:43;;;;;;;11.73;5.82;;;3.50;99.90;;;;;;4879039;29;20435;-85
2022/03/02 12:13:17;;;;;;;12.07;6.10;;;3.60;99.90;;;;;;4858372;29;20551;-85
2022/03/02 12:15:48;;;;;;;11.60;5.82;;;3.70;99.90;;;;;;4861933;29;20527;-85
2022/03/02 12:18:17;;;;;;;12.40;6.70;;;3.70;99.90;;;;;;4861971;29;20405;-84
2022/03/02 12:20:50;;;;;;;11.88;6.20;;;3.70;99.90;;;;;;4862788;29;20445;-84
2022/03/02 12:23:28;;;;;;;11.70;5.97;;;3.70;99.90;;;;;;4851564;29;20833;-84
2022/03/02 12:25:59;;;;;;;12.48;6.65;;;3.60;99.90;;;;;;4868266;29;20830;-84
2022/03/02 12:28:28;;;;;;;12.23;6.07;;;3.60;99.90;;;;;;4878524;29;20490;-85
2022/03/02 12:30:56;;;;;;;12.90;6.30;;;3.80;99.90;;;;;;4878474;29;20917;-84
2022/03/02 12:33:24;;;;;;;10.63;5.90;;;3.80;99.90;;;;;;4879032;29;20463;-84
2022/03/02 12:35:52;;;;;;;9.57;5.30;;;3.80;99.90;;;;;;4879708;29;20427;-84
2022/03/02 12:38:21;;;;;;;12.27;5.50;;;3.80;99.90;;;;;;4878712;29;20418;-84
2022/03/02 12:40:48;;;;;;;11.15;5.65;;;3.90;99.90;;;;;;4879533;29;20463;-84
2022/03/02 12:43:17;;;;;;;10.85;5.80;;;3.90;99.90;;;;;;4864319;29;20929;-85
2022/03/02 12:45:52;;;;;;;10.97;5.37;;;4.10;99.90;;;;;;4881390;29;20412;-85
2022/03/02 12:48:21;;;;;;;11.77;6.30;;;4.10;99.90;;;;;;4881005;29;20413;-84
2022/03/02 12:50:50;;;;;;;10.50;5.63;;;4.20;99.90;;;;;;4881023;29;20785;-85
2022/03/02 12:53:19;;;;;;;12.02;6.28;;;4.20;99.90;;;;;;4879975;29;20511;-85
2022/03/02 12:55:50;;;;;;;12.05;6.10;;;4.40;99.90;;;;;;4865031;29;20474;-84
2022/03/02 12:58:18;;;;;;;11.15;6.00;;;4.40;99.90;;;;;;4879730;29;20411;-85
2022/03/02 13:00:46;;;;;;;11.52;6.00;;;4.40;99.90;;;;;;4873854;29;21099;-84